sensor_id;sensor_type;location;lat;lon;timestamp;temperature;humidity
55331;DHT22;58851;42.984;20.336;2023-10-19T00:00:33;205.00;6502.40
55331;DHT22;58851;42.984;20.336;2023-10-19T00:03:00;204.90;6502.40
55331;DHT22;58851;42.984;20.336;2023-10-19T00:05:29;205.00;6502.40
55331;DHT22;58851;42.984;20.336;2023-10-19T00:07:57;205.00;6502.40
55331;DHT22;58851;42.984;20.336;2023-10-19T00:10:25;205.00;6502.40
55331;DHT22;58851;42.984;20.336;2023-10-19T00:12:55;205.00;6502.40
55331;DHT22;58851;42.984;20.336;2023-10-19T00:15:31;205.10;6502.40
55331;DHT22;58851;42.984;20.336;2023-10-19T00:17:58;205.20;6502.40
55331;DHT22;58851;42.984;20.336;2023-10-19T00:20:31;205.10;6502.40
55331;DHT22;58851;42.984;20.336;2023-10-19T00:22:57;205.00;6502.40
55331;DHT22;58851;42.984;20.336;2023-10-19T00:25:23;205.00;6502.40
55331;DHT22;58851;42.984;20.336;2023-10-19T00:27:50;205.00;6502.40
55331;DHT22;58851;42.984;20.336;2023-10-19T00:30:17;205.00;6502.40
55331;DHT22;58851;42.984;20.336;2023-10-19T00:32:49;205.00;6502.40
55331;DHT22;58851;42.984;20.336;2023-10-19T00:35:16;205.10;6502.40
55331;DHT22;58851;42.984;20.336;2023-10-19T00:38:00;205.10;6502.40
55331;DHT22;58851;42.984;20.336;2023-10-19T00:40:55;205.10;6502.40
55331;DHT22;58851;42.984;20.336;2023-10-19T00:43:33;205.20;6502.40
55331;DHT22;58851;42.984;20.336;2023-10-19T00:46:07;205.00;6502.40
55331;DHT22;58851;42.984;20.336;2023-10-19T00:49:02;205.00;6502.40
55331;DHT22;58851;42.984;20.336;2023-10-19T00:51:38;205.10;6502.40
55331;DHT22;58851;42.984;20.336;2023-10-19T00:54:35;205.00;6502.40
55331;DHT22;58851;42.984;20.336;2023-10-19T00:57:04;205.10;6502.40
55331;DHT22;58851;42.984;20.336;2023-10-19T00:59:37;205.20;6502.40
55331;DHT22;58851;42.984;20.336;2023-10-19T01:02:13;205.20;6502.40
55331;DHT22;58851;42.984;20.336;2023-10-19T01:04:55;205.10;6502.40
55331;DHT22;58851;42.984;20.336;2023-10-19T01:07:25;205.00;6502.40
55331;DHT22;58851;42.984;20.336;2023-10-19T01:09:53;205.10;6502.40
55331;DHT22;58851;42.984;20.336;2023-10-19T01:12:21;205.10;6502.40
55331;DHT22;58851;42.984;20.336;2023-10-19T01:17:39;205.20;6502.40
55331;DHT22;58851;42.984;20.336;2023-10-19T01:20:14;205.20;6502.40
55331;DHT22;58851;42.984;20.336;2023-10-19T01:23:06;205.20;6502.40
55331;DHT22;58851;42.984;20.336;2023-10-19T01:28:16;205.30;6502.40
55331;DHT22;58851;42.984;20.336;2023-10-19T01:30:43;205.30;6502.40
55331;DHT22;58851;42.984;20.336;2023-10-19T01:33:17;205.30;6502.40
55331;DHT22;58851;42.984;20.336;2023-10-19T01:35:45;205.30;6502.40
55331;DHT22;58851;42.984;20.336;2023-10-19T01:38:40;205.30;6502.40
55331;DHT22;58851;42.984;20.336;2023-10-19T01:41:08;205.30;6502.40
55331;DHT22;58851;42.984;20.336;2023-10-19T01:44:00;205.30;6502.40
55331;DHT22;58851;42.984;20.336;2023-10-19T01:46:33;205.30;6502.40
55331;DHT22;58851;42.984;20.336;2023-10-19T01:49:00;205.30;6502.40
55331;DHT22;58851;42.984;20.336;2023-10-19T01:51:28;205.30;6502.40
55331;DHT22;58851;42.984;20.336;2023-10-19T01:53:56;205.20;6502.40
55331;DHT22;58851;42.984;20.336;2023-10-19T01:56:22;205.30;6502.40
55331;DHT22;58851;42.984;20.336;2023-10-19T01:58:49;205.20;6502.40
55331;DHT22;58851;42.984;20.336;2023-10-19T02:01:17;205.20;6502.40
55331;DHT22;58851;42.984;20.336;2023-10-19T02:04:03;205.20;6502.40
55331;DHT22;58851;42.984;20.336;2023-10-19T02:06:30;205.10;6502.40
55331;DHT22;58851;42.984;20.336;2023-10-19T02:09:02;205.00;6502.40
55331;DHT22;58851;42.984;20.336;2023-10-19T02:11:44;205.10;6502.40
55331;DHT22;58851;42.984;20.336;2023-10-19T02:14:14;205.00;6502.40
55331;DHT22;58851;42.984;20.336;2023-10-19T02:16:45;205.10;6502.40
55331;DHT22;58851;42.984;20.336;2023-10-19T02:19:12;205.10;6502.40
55331;DHT22;58851;42.984;20.336;2023-10-19T02:21:38;205.20;6502.40
55331;DHT22;58851;42.984;20.336;2023-10-19T02:24:11;205.20;6502.40
55331;DHT22;58851;42.984;20.336;2023-10-19T02:26:40;205.20;6502.40
55331;DHT22;58851;42.984;20.336;2023-10-19T02:29:06;205.30;6502.40
55331;DHT22;58851;42.984;20.336;2023-10-19T02:31:36;205.20;6502.40
55331;DHT22;58851;42.984;20.336;2023-10-19T02:34:07;205.30;6502.40
55331;DHT22;58851;42.984;20.336;2023-10-19T02:36:34;205.30;6502.40
55331;DHT22;58851;42.984;20.336;2023-10-19T02:39:07;205.30;6502.40
55331;DHT22;58851;42.984;20.336;2023-10-19T02:41:41;205.30;6502.40
55331;DHT22;58851;42.984;20.336;2023-10-19T02:44:11;205.40;6502.40
55331;DHT22;58851;42.984;20.336;2023-10-19T02:46:46;205.40;6502.40
55331;DHT22;58851;42.984;20.336;2023-10-19T02:49:13;205.40;6502.40
55331;DHT22;58851;42.984;20.336;2023-10-19T02:51:42;205.40;6502.40
55331;DHT22;58851;42.984;20.336;2023-10-19T02:54:12;205.40;6502.40
55331;DHT22;58851;42.984;20.336;2023-10-19T02:56:58;205.40;6502.40
55331;DHT22;58851;42.984;20.336;2023-10-19T02:59:26;205.40;6502.40
55331;DHT22;58851;42.984;20.336;2023-10-19T03:01:58;205.40;6502.40
55331;DHT22;58851;42.984;20.336;2023-10-19T03:04:39;205.40;6502.40
55331;DHT22;58851;42.984;20.336;2023-10-19T03:07:07;205.30;6502.40
55331;DHT22;58851;42.984;20.336;2023-10-19T03:09:33;205.40;6502.40
55331;DHT22;58851;42.984;20.336;2023-10-19T03:12:02;205.30;6502.40
55331;DHT22;58851;42.984;20.336;2023-10-19T03:14:30;205.40;6502.40
55331;DHT22;58851;42.984;20.336;2023-10-19T03:16:57;205.40;6502.40
55331;DHT22;58851;42.984;20.336;2023-10-19T03:19:23;205.30;6502.40
55331;DHT22;58851;42.984;20.336;2023-10-19T03:21:50;205.10;6502.40
55331;DHT22;58851;42.984;20.336;2023-10-19T03:24:17;205.10;6502.40
55331;DHT22;58851;42.984;20.336;2023-10-19T03:27:05;205.20;6502.40
55331;DHT22;58851;42.984;20.336;2023-10-19T03:29:42;205.20;6502.40
55331;DHT22;58851;42.984;20.336;2023-10-19T03:32:12;205.20;6502.40
55331;DHT22;58851;42.984;20.336;2023-10-19T03:34:38;205.20;6502.40
55331;DHT22;58851;42.984;20.336;2023-10-19T03:37:04;205.30;6502.40
55331;DHT22;58851;42.984;20.336;2023-10-19T03:39:38;205.30;6502.40
55331;DHT22;58851;42.984;20.336;2023-10-19T03:42:05;205.30;6502.40
55331;DHT22;58851;42.984;20.336;2023-10-19T03:44:34;205.40;6502.40
55331;DHT22;58851;42.984;20.336;2023-10-19T03:47:15;205.40;6502.40
55331;DHT22;58851;42.984;20.336;2023-10-19T03:49:46;205.40;6502.40
55331;DHT22;58851;42.984;20.336;2023-10-19T03:52:13;205.30;6502.40
55331;DHT22;58851;42.984;20.336;2023-10-19T03:54:39;205.40;6502.40
55331;DHT22;58851;42.984;20.336;2023-10-19T03:57:06;205.40;6502.40
55331;DHT22;58851;42.984;20.336;2023-10-19T03:59:40;205.40;6502.40
55331;DHT22;58851;42.984;20.336;2023-10-19T04:02:10;205.40;6502.40
55331;DHT22;58851;42.984;20.336;2023-10-19T04:04:42;205.40;6502.40
55331;DHT22;58851;42.984;20.336;2023-10-19T04:07:18;205.30;6502.40
55331;DHT22;58851;42.984;20.336;2023-10-19T04:09:50;205.40;6502.40
55331;DHT22;58851;42.984;20.336;2023-10-19T04:12:39;205.40;6502.40
55331;DHT22;58851;42.984;20.336;2023-10-19T04:15:08;205.30;6502.40
55331;DHT22;58851;42.984;20.336;2023-10-19T04:17:43;205.40;6502.40
55331;DHT22;58851;42.984;20.336;2023-10-19T04:20:13;205.40;6502.40
55331;DHT22;58851;42.984;20.336;2023-10-19T04:22:43;205.50;6502.40
55331;DHT22;58851;42.984;20.336;2023-10-19T04:25:09;205.50;6502.40
55331;DHT22;58851;42.984;20.336;2023-10-19T04:27:38;205.50;6502.40
55331;DHT22;58851;42.984;20.336;2023-10-19T04:30:08;205.40;6502.40
55331;DHT22;58851;42.984;20.336;2023-10-19T04:32:45;205.10;6502.40
55331;DHT22;58851;42.984;20.336;2023-10-19T04:35:11;205.20;6502.40
55331;DHT22;58851;42.984;20.336;2023-10-19T04:37:39;205.20;6502.40
55331;DHT22;58851;42.984;20.336;2023-10-19T04:40:09;205.20;6502.40
55331;DHT22;58851;42.984;20.336;2023-10-19T04:42:35;205.30;6502.40
55331;DHT22;58851;42.984;20.336;2023-10-19T04:45:02;205.30;6502.40
55331;DHT22;58851;42.984;20.336;2023-10-19T04:47:29;205.30;6502.40
55331;DHT22;58851;42.984;20.336;2023-10-19T04:49:54;205.40;6502.40
55331;DHT22;58851;42.984;20.336;2023-10-19T04:52:21;205.40;6502.40
55331;DHT22;58851;42.984;20.336;2023-10-19T04:54:47;205.40;6502.40
55331;DHT22;58851;42.984;20.336;2023-10-19T04:57:12;205.50;6502.40
55331;DHT22;58851;42.984;20.336;2023-10-19T04:59:38;205.50;6502.40
55331;DHT22;58851;42.984;20.336;2023-10-19T05:02:04;205.50;6502.40
55331;DHT22;58851;42.984;20.336;2023-10-19T05:04:31;205.50;6502.40
55331;DHT22;58851;42.984;20.336;2023-10-19T05:06:57;205.30;6502.40
55331;DHT22;58851;42.984;20.336;2023-10-19T05:09:22;205.20;6502.40
55331;DHT22;58851;42.984;20.336;2023-10-19T05:11:48;205.20;6502.40
55331;DHT22;58851;42.984;20.336;2023-10-19T05:14:14;205.20;6502.40
55331;DHT22;58851;42.984;20.336;2023-10-19T05:16:40;205.30;6502.40
55331;DHT22;58851;42.984;20.336;2023-10-19T05:19:06;205.30;6502.40
55331;DHT22;58851;42.984;20.336;2023-10-19T05:21:32;205.30;6502.40
55331;DHT22;58851;42.984;20.336;2023-10-19T05:23:59;205.40;6502.40
55331;DHT22;58851;42.984;20.336;2023-10-19T05:26:28;205.50;6502.40
55331;DHT22;58851;42.984;20.336;2023-10-19T05:28:54;205.40;6502.40
55331;DHT22;58851;42.984;20.336;2023-10-19T05:31:20;205.30;6502.40
55331;DHT22;58851;42.984;20.336;2023-10-19T05:33:46;205.30;6502.40
55331;DHT22;58851;42.984;20.336;2023-10-19T05:36:14;205.30;6502.40
55331;DHT22;58851;42.984;20.336;2023-10-19T05:38:40;205.30;6502.40
55331;DHT22;58851;42.984;20.336;2023-10-19T05:41:06;205.30;6502.40
55331;DHT22;58851;42.984;20.336;2023-10-19T05:43:33;205.30;6502.40
55331;DHT22;58851;42.984;20.336;2023-10-19T05:46:00;205.40;6502.40
55331;DHT22;58851;42.984;20.336;2023-10-19T05:48:26;205.50;6502.40
55331;DHT22;58851;42.984;20.336;2023-10-19T05:50:52;205.60;6502.40
55331;DHT22;58851;42.984;20.336;2023-10-19T05:53:18;205.60;6502.40
55331;DHT22;58851;42.984;20.336;2023-10-19T05:55:46;205.70;6502.40
55331;DHT22;58851;42.984;20.336;2023-10-19T05:58:12;230.40;6502.40
55331;DHT22;58851;42.984;20.336;2023-10-19T06:00:38;230.40;6502.40
55331;DHT22;58851;42.984;20.336;2023-10-19T06:03:04;230.50;6502.40
55331;DHT22;58851;42.984;20.336;2023-10-19T06:05:30;230.60;6502.40
55331;DHT22;58851;42.984;20.336;2023-10-19T06:07:56;230.80;6502.40
55331;DHT22;58851;42.984;20.336;2023-10-19T06:10:27;230.70;6502.40
55331;DHT22;58851;42.984;20.336;2023-10-19T06:12:53;230.70;6502.40
55331;DHT22;58851;42.984;20.336;2023-10-19T06:15:21;230.70;6502.40
55331;DHT22;58851;42.984;20.336;2023-10-19T06:17:48;230.60;6502.40
55331;DHT22;58851;42.984;20.336;2023-10-19T06:20:15;230.60;6502.40
55331;DHT22;58851;42.984;20.336;2023-10-19T06:22:56;230.60;6502.40
55331;DHT22;58851;42.984;20.336;2023-10-19T06:25:24;230.80;6502.40
55331;DHT22;58851;42.984;20.336;2023-10-19T06:27:51;230.80;6502.40
55331;DHT22;58851;42.984;20.336;2023-10-19T06:30:18;230.80;6502.40
55331;DHT22;58851;42.984;20.336;2023-10-19T06:32:58;230.80;6502.40
55331;DHT22;58851;42.984;20.336;2023-10-19T06:35:28;230.90;6502.40
55331;DHT22;58851;42.984;20.336;2023-10-19T06:37:55;231.10;6502.40
55331;DHT22;58851;42.984;20.336;2023-10-19T06:40:21;231.20;6502.40
55331;DHT22;58851;42.984;20.336;2023-10-19T06:42:48;256.00;6502.40
55331;DHT22;58851;42.984;20.336;2023-10-19T06:45:15;256.10;6502.40
55331;DHT22;58851;42.984;20.336;2023-10-19T06:47:46;256.20;6502.40
55331;DHT22;58851;42.984;20.336;2023-10-19T06:50:22;256.30;6502.40
55331;DHT22;58851;42.984;20.336;2023-10-19T06:52:48;256.50;6502.40
55331;DHT22;58851;42.984;20.336;2023-10-19T06:55:15;256.60;6502.40
55331;DHT22;58851;42.984;20.336;2023-10-19T06:57:53;256.50;6502.40
55331;DHT22;58851;42.984;20.336;2023-10-19T07:00:21;256.80;6502.40
55331;DHT22;58851;42.984;20.336;2023-10-19T07:02:49;256.90;6502.40
55331;DHT22;58851;42.984;20.336;2023-10-19T07:05:16;281.70;6528.00
55331;DHT22;58851;42.984;20.336;2023-10-19T07:07:52;281.90;6528.00
55331;DHT22;58851;42.984;20.336;2023-10-19T07:10:20;282.10;6528.00
55331;DHT22;58851;42.984;20.336;2023-10-19T07:12:47;282.30;6528.00
55331;DHT22;58851;42.984;20.336;2023-10-19T07:15:14;282.40;6528.00
55331;DHT22;58851;42.984;20.336;2023-10-19T07:17:41;282.40;6528.00
55331;DHT22;58851;42.984;20.336;2023-10-19T07:20:08;282.40;6528.00
55331;DHT22;58851;42.984;20.336;2023-10-19T07:22:47;282.30;6528.00
55331;DHT22;58851;42.984;20.336;2023-10-19T07:25:13;282.30;6528.00
55331;DHT22;58851;42.984;20.336;2023-10-19T07:27:39;282.40;6528.00
55331;DHT22;58851;42.984;20.336;2023-10-19T07:30:08;282.50;6528.00
55331;DHT22;58851;42.984;20.336;2023-10-19T07:32:35;307.20;128.00
55331;DHT22;58851;42.984;20.336;2023-10-19T07:35:01;307.40;128.00
55331;DHT22;58851;42.984;20.336;2023-10-19T07:37:27;307.50;128.00
55331;DHT22;58851;42.984;20.336;2023-10-19T07:39:54;307.80;128.00
55331;DHT22;58851;42.984;20.336;2023-10-19T07:42:23;308.00;128.00
55331;DHT22;58851;42.984;20.336;2023-10-19T07:44:49;332.80;128.00
55331;DHT22;58851;42.984;20.336;2023-10-19T07:47:15;332.90;128.00
55331;DHT22;58851;42.984;20.336;2023-10-19T07:49:41;333.00;128.00
55331;DHT22;58851;42.984;20.336;2023-10-19T07:52:08;332.90;128.00
55331;DHT22;58851;42.984;20.336;2023-10-19T07:54:37;333.00;128.00
55331;DHT22;58851;42.984;20.336;2023-10-19T07:57:03;333.20;128.00
55331;DHT22;58851;42.984;20.336;2023-10-19T07:59:35;333.30;128.00
55331;DHT22;58851;42.984;20.336;2023-10-19T08:02:01;333.60;128.00
55331;DHT22;58851;42.984;20.336;2023-10-19T08:04:30;333.70;128.00
55331;DHT22;58851;42.984;20.336;2023-10-19T08:06:57;333.70;128.00
55331;DHT22;58851;42.984;20.336;2023-10-19T08:09:24;358.40;128.00
55331;DHT22;58851;42.984;20.336;2023-10-19T08:11:51;358.60;128.00
55331;DHT22;58851;42.984;20.336;2023-10-19T08:14:27;358.80;128.00
55331;DHT22;58851;42.984;20.336;2023-10-19T08:16:53;358.70;128.00
55331;DHT22;58851;42.984;20.336;2023-10-19T08:19:19;358.80;128.00
55331;DHT22;58851;42.984;20.336;2023-10-19T08:21:45;358.90;128.00
55331;DHT22;58851;42.984;20.336;2023-10-19T08:24:11;359.20;128.00
55331;DHT22;58851;42.984;20.336;2023-10-19T08:26:44;358.90;128.00
55331;DHT22;58851;42.984;20.336;2023-10-19T08:29:13;359.10;128.00
55331;DHT22;58851;42.984;20.336;2023-10-19T08:31:42;359.20;128.00
55331;DHT22;58851;42.984;20.336;2023-10-19T08:34:11;359.30;128.00
55331;DHT22;58851;42.984;20.336;2023-10-19T08:36:40;384.10;128.00
55331;DHT22;58851;42.984;20.336;2023-10-19T08:39:07;384.30;128.00
55331;DHT22;58851;42.984;20.336;2023-10-19T08:41:34;384.70;128.00
55331;DHT22;58851;42.984;20.336;2023-10-19T08:44:05;409.60;128.00
55331;DHT22;58851;42.984;20.336;2023-10-19T08:46:40;409.80;128.00
55331;DHT22;58851;42.984;20.336;2023-10-19T08:49:13;410.10;128.00
55331;DHT22;58851;42.984;20.336;2023-10-19T08:51:40;410.20;128.00
55331;DHT22;58851;42.984;20.336;2023-10-19T08:54:13;410.50;128.00
55331;DHT22;58851;42.984;20.336;2023-10-19T08:56:40;435.20;128.00
55331;DHT22;58851;42.984;20.336;2023-10-19T08:59:07;435.40;128.00
55331;DHT22;58851;42.984;20.336;2023-10-19T09:01:33;435.60;128.00
55331;DHT22;58851;42.984;20.336;2023-10-19T09:04:02;435.80;128.00
55331;DHT22;58851;42.984;20.336;2023-10-19T09:06:28;435.80;128.00
55331;DHT22;58851;42.984;20.336;2023-10-19T09:08:57;436.00;128.00
55331;DHT22;58851;42.984;20.336;2023-10-19T09:11:26;436.10;128.00
55331;DHT22;58851;42.984;20.336;2023-10-19T09:13:52;460.90;128.00
55331;DHT22;58851;42.984;20.336;2023-10-19T09:16:20;461.10;128.00
55331;DHT22;58851;42.984;20.336;2023-10-19T09:18:50;461.10;128.00
55331;DHT22;58851;42.984;20.336;2023-10-19T09:21:20;460.90;128.00
55331;DHT22;58851;42.984;20.336;2023-10-19T09:23:57;460.90;128.00
55331;DHT22;58851;42.984;20.336;2023-10-19T09:26:24;460.80;128.00
55331;DHT22;58851;42.984;20.336;2023-10-19T09:28:52;460.80;128.00
55331;DHT22;58851;42.984;20.336;2023-10-19T09:31:18;436.10;128.00
55331;DHT22;58851;42.984;20.336;2023-10-19T09:33:47;460.80;128.00
55331;DHT22;58851;42.984;20.336;2023-10-19T09:36:14;460.90;128.00
55331;DHT22;58851;42.984;20.336;2023-10-19T09:41:16;461.10;128.00
55331;DHT22;58851;42.984;20.336;2023-10-19T09:43:47;461.00;128.00
55331;DHT22;58851;42.984;20.336;2023-10-19T09:46:37;461.10;128.00
55331;DHT22;58851;42.984;20.336;2023-10-19T09:49:04;461.00;128.00
55331;DHT22;58851;42.984;20.336;2023-10-19T09:51:37;461.00;128.00
55331;DHT22;58851;42.984;20.336;2023-10-19T09:54:27;461.00;128.00
55331;DHT22;58851;42.984;20.336;2023-10-19T09:57:03;460.80;128.00
55331;DHT22;58851;42.984;20.336;2023-10-19T09:59:38;436.10;128.00
55331;DHT22;58851;42.984;20.336;2023-10-19T10:02:11;460.80;128.00
55331;DHT22;58851;42.984;20.336;2023-10-19T10:04:41;460.90;128.00
55331;DHT22;58851;42.984;20.336;2023-10-19T10:07:09;461.00;128.00
55331;DHT22;58851;42.984;20.336;2023-10-19T10:09:41;461.00;128.00
55331;DHT22;58851;42.984;20.336;2023-10-19T10:15:00;461.30;128.00
55331;DHT22;58851;42.984;20.336;2023-10-19T10:17:39;461.30;128.00
55331;DHT22;58851;42.984;20.336;2023-10-19T10:20:28;461.30;128.00
55331;DHT22;58851;42.984;20.336;2023-10-19T10:23:19;461.40;128.00
55331;DHT22;58851;42.984;20.336;2023-10-19T10:25:50;461.50;128.00
55331;DHT22;58851;42.984;20.336;2023-10-19T10:28:19;461.70;128.00
55331;DHT22;58851;42.984;20.336;2023-10-19T10:31:14;486.40;128.00
55331;DHT22;58851;42.984;20.336;2023-10-19T10:33:46;486.60;128.00
55331;DHT22;58851;42.984;20.336;2023-10-19T10:36:16;486.80;128.00
55331;DHT22;58851;42.984;20.336;2023-10-19T10:38:49;486.80;128.00
55331;DHT22;58851;42.984;20.336;2023-10-19T10:43:53;486.90;128.00
55331;DHT22;58851;42.984;20.336;2023-10-19T10:46:21;486.90;128.00
55331;DHT22;58851;42.984;20.336;2023-10-19T10:48:47;487.10;128.00
55331;DHT22;58851;42.984;20.336;2023-10-19T10:51:21;487.30;128.00
55331;DHT22;58851;42.984;20.336;2023-10-19T10:53:52;512.00;128.00
55331;DHT22;58851;42.984;20.336;2023-10-19T10:56:20;512.20;128.00
55331;DHT22;58851;42.984;20.336;2023-10-19T10:58:46;512.30;128.00
55331;DHT22;58851;42.984;20.336;2023-10-19T11:01:12;512.70;128.00
55331;DHT22;58851;42.984;20.336;2023-10-19T11:03:39;512.90;128.00
55331;DHT22;58851;42.984;20.336;2023-10-19T11:06:06;537.70;128.00
55331;DHT22;58851;42.984;20.336;2023-10-19T11:08:34;538.10;128.00
55331;DHT22;58851;42.984;20.336;2023-10-19T11:11:06;538.30;281.60
55331;DHT22;58851;42.984;20.336;2023-10-19T11:13:32;538.30;128.00
55331;DHT22;58851;42.984;20.336;2023-10-19T11:16:01;538.40;128.00
55331;DHT22;58851;42.984;20.336;2023-10-19T11:21:00;538.40;128.00
55331;DHT22;58851;42.984;20.336;2023-10-19T11:23:40;538.20;128.00
55331;DHT22;58851;42.984;20.336;2023-10-19T11:26:08;538.40;128.00
55331;DHT22;58851;42.984;20.336;2023-10-19T11:28:35;538.50;128.00
55331;DHT22;58851;42.984;20.336;2023-10-19T11:31:19;538.50;128.00
55331;DHT22;58851;42.984;20.336;2023-10-19T11:33:48;563.20;128.00
55331;DHT22;58851;42.984;20.336;2023-10-19T11:36:15;563.30;128.00
55331;DHT22;58851;42.984;20.336;2023-10-19T11:38:43;563.30;128.00
55331;DHT22;58851;42.984;20.336;2023-10-19T11:41:10;563.20;128.00
55331;DHT22;58851;42.984;20.336;2023-10-19T11:43:36;538.40;128.00
55331;DHT22;58851;42.984;20.336;2023-10-19T11:46:02;538.10;128.00
55331;DHT22;58851;42.984;20.336;2023-10-19T11:48:31;538.10;128.00
55331;DHT22;58851;42.984;20.336;2023-10-19T11:50:57;538.00;128.00
55331;DHT22;58851;42.984;20.336;2023-10-19T11:53:23;537.90;128.00
55331;DHT22;58851;42.984;20.336;2023-10-19T11:55:49;537.90;128.00
55331;DHT22;58851;42.984;20.336;2023-10-19T11:58:15;538.00;128.00
55331;DHT22;58851;42.984;20.336;2023-10-19T12:00:41;537.90;128.00
55331;DHT22;58851;42.984;20.336;2023-10-19T12:03:12;537.90;128.00
55331;DHT22;58851;42.984;20.336;2023-10-19T12:05:39;537.60;128.00
55331;DHT22;58851;42.984;20.336;2023-10-19T12:08:05;512.90;128.00
55331;DHT22;58851;42.984;20.336;2023-10-19T12:10:32;512.70;128.00
55331;DHT22;58851;42.984;20.336;2023-10-19T12:13:03;512.60;128.00
55331;DHT22;58851;42.984;20.336;2023-10-19T12:15:30;512.50;128.00
55331;DHT22;58851;42.984;20.336;2023-10-19T12:17:56;512.50;128.00
55331;DHT22;58851;42.984;20.336;2023-10-19T12:20:22;512.50;128.00
55331;DHT22;58851;42.984;20.336;2023-10-19T12:22:48;512.40;128.00
55331;DHT22;58851;42.984;20.336;2023-10-19T12:25:17;512.40;128.00
55331;DHT22;58851;42.984;20.336;2023-10-19T12:27:43;512.50;128.00
55331;DHT22;58851;42.984;20.336;2023-10-19T12:30:09;512.40;128.00
55331;DHT22;58851;42.984;20.336;2023-10-19T12:32:50;512.20;128.00
55331;DHT22;58851;42.984;20.336;2023-10-19T12:35:16;512.10;128.00
55331;DHT22;58851;42.984;20.336;2023-10-19T12:37:45;512.00;128.00
55331;DHT22;58851;42.984;20.336;2023-10-19T12:40:15;487.30;128.00
55331;DHT22;58851;42.984;20.336;2023-10-19T12:42:52;487.30;128.00
55331;DHT22;58851;42.984;20.336;2023-10-19T12:45:23;512.00;128.00
55331;DHT22;58851;42.984;20.336;2023-10-19T12:47:49;487.30;128.00
55331;DHT22;58851;42.984;20.336;2023-10-19T12:50:18;487.20;128.00
55331;DHT22;58851;42.984;20.336;2023-10-19T12:52:49;487.10;128.00
55331;DHT22;58851;42.984;20.336;2023-10-19T12:55:16;487.10;128.00
55331;DHT22;58851;42.984;20.336;2023-10-19T12:57:42;487.10;128.00
55331;DHT22;58851;42.984;20.336;2023-10-19T13:00:08;487.00;128.00
55331;DHT22;58851;42.984;20.336;2023-10-19T13:02:55;486.90;256.00
55331;DHT22;58851;42.984;20.336;2023-10-19T13:05:27;486.80;128.00
55331;DHT22;58851;42.984;20.336;2023-10-19T13:07:53;486.70;128.00
55331;DHT22;58851;42.984;20.336;2023-10-19T13:10:32;486.70;128.00
55331;DHT22;58851;42.984;20.336;2023-10-19T13:13:03;486.80;128.00
55331;DHT22;58851;42.984;20.336;2023-10-19T13:15:33;486.90;128.00
55331;DHT22;58851;42.984;20.336;2023-10-19T13:18:05;486.90;128.00
55331;DHT22;58851;42.984;20.336;2023-10-19T13:20:33;486.90;332.80
55331;DHT22;58851;42.984;20.336;2023-10-19T13:23:02;486.80;332.80
55331;DHT22;58851;42.984;20.336;2023-10-19T13:25:35;487.00;358.40
55331;DHT22;58851;42.984;20.336;2023-10-19T13:28:17;487.10;307.20
55331;DHT22;58851;42.984;20.336;2023-10-19T13:30:47;487.20;204.80
55331;DHT22;58851;42.984;20.336;2023-10-19T13:33:14;487.20;435.20
55331;DHT22;58851;42.984;20.336;2023-10-19T13:35:40;487.20;128.00
55331;DHT22;58851;42.984;20.336;2023-10-19T13:38:08;487.20;128.00
55331;DHT22;58851;42.984;20.336;2023-10-19T13:40:36;487.20;128.00
55331;DHT22;58851;42.984;20.336;2023-10-19T13:43:03;487.30;128.00
55331;DHT22;58851;42.984;20.336;2023-10-19T13:45:36;512.00;128.00
55331;DHT22;58851;42.984;20.336;2023-10-19T13:48:05;512.10;128.00
55331;DHT22;58851;42.984;20.336;2023-10-19T13:50:32;512.30;128.00
55331;DHT22;58851;42.984;20.336;2023-10-19T13:52:58;512.50;128.00
55331;DHT22;58851;42.984;20.336;2023-10-19T13:55:26;512.50;128.00
55331;DHT22;58851;42.984;20.336;2023-10-19T13:57:52;512.50;128.00
55331;DHT22;58851;42.984;20.336;2023-10-19T14:00:20;512.50;128.00
55331;DHT22;58851;42.984;20.336;2023-10-19T14:02:52;512.40;128.00
55331;DHT22;58851;42.984;20.336;2023-10-19T14:05:19;512.40;128.00
55331;DHT22;58851;42.984;20.336;2023-10-19T14:07:48;512.40;128.00
55331;DHT22;58851;42.984;20.336;2023-10-19T14:10:14;512.40;128.00
55331;DHT22;58851;42.984;20.336;2023-10-19T14:12:40;512.50;128.00
55331;DHT22;58851;42.984;20.336;2023-10-19T14:15:14;512.80;153.60
55331;DHT22;58851;42.984;20.336;2023-10-19T14:17:41;537.60;128.00
55331;DHT22;58851;42.984;20.336;2023-10-19T14:20:08;537.90;332.80
55331;DHT22;58851;42.984;20.336;2023-10-19T14:22:44;537.80;128.00
55331;DHT22;58851;42.984;20.336;2023-10-19T14:25:11;537.80;307.20
55331;DHT22;58851;42.984;20.336;2023-10-19T14:27:44;512.90;128.00
55331;DHT22;58851;42.984;20.336;2023-10-19T14:30:14;512.60;384.00
55331;DHT22;58851;42.984;20.336;2023-10-19T14:32:44;512.40;460.80
55331;DHT22;58851;42.984;20.336;2023-10-19T14:35:11;512.50;256.00
55331;DHT22;58851;42.984;20.336;2023-10-19T14:37:41;512.60;128.00
55331;DHT22;58851;42.984;20.336;2023-10-19T14:40:12;512.60;128.00
55331;DHT22;58851;42.984;20.336;2023-10-19T14:42:40;512.60;128.00
55331;DHT22;58851;42.984;20.336;2023-10-19T14:45:08;512.60;153.60
55331;DHT22;58851;42.984;20.336;2023-10-19T14:47:38;512.50;409.60
55331;DHT22;58851;42.984;20.336;2023-10-19T14:50:10;512.40;128.00
55331;DHT22;58851;42.984;20.336;2023-10-19T14:52:42;512.20;128.00
55331;DHT22;58851;42.984;20.336;2023-10-19T14:55:09;512.10;128.00
55331;DHT22;58851;42.984;20.336;2023-10-19T14:57:37;512.10;128.00
55331;DHT22;58851;42.984;20.336;2023-10-19T15:00:09;512.20;128.00
55331;DHT22;58851;42.984;20.336;2023-10-19T15:02:50;512.20;128.00
55331;DHT22;58851;42.984;20.336;2023-10-19T15:05:19;512.20;128.00
55331;DHT22;58851;42.984;20.336;2023-10-19T15:07:50;487.20;128.00
55331;DHT22;58851;42.984;20.336;2023-10-19T15:10:23;487.20;128.00
55331;DHT22;58851;42.984;20.336;2023-10-19T15:12:50;487.20;128.00